sensor_id;sensor_type;location;lat;lon;timestamp;P1;durP1;ratioP1;P2;durP2;ratioP2
29466;SDS011;60968;37.490;-122.288;2022-11-28T00:00:29;8.90;;;2.67;;
29466;SDS011;60968;37.490;-122.288;2022-11-28T00:03:31;5.77;;;2.93;;
29466;SDS011;60968;37.490;-122.288;2022-11-28T00:06:31;9.03;;;3.00;;
29466;SDS011;60968;37.490;-122.288;2022-11-28T00:09:36;13.07;;;3.27;;
29466;SDS011;60968;37.490;-122.288;2022-11-28T00:12:37;8.47;;;3.27;;
29466;SDS011;60968;37.490;-122.288;2022-11-28T00:15:38;7.20;;;3.03;;
29466;SDS011;60968;37.490;-122.288;2022-11-28T00:18:39;6.00;;;3.17;;
29466;SDS011;60968;37.490;-122.288;2022-11-28T00:21:40;5.33;;;2.70;;
29466;SDS011;60968;37.490;-122.288;2022-11-28T00:24:41;9.00;;;3.27;;
29466;SDS011;60968;37.490;-122.288;2022-11-28T00:27:42;8.07;;;3.03;;
29466;SDS011;60968;37.490;-122.288;2022-11-28T00:30:43;5.87;;;3.20;;
29466;SDS011;60968;37.490;-122.288;2022-11-28T00:33:44;8.83;;;2.50;;
29466;SDS011;60968;37.490;-122.288;2022-11-28T00:36:46;11.00;;;3.10;;
29466;SDS011;60968;37.490;-122.288;2022-11-28T00:39:47;6.27;;;3.17;;
29466;SDS011;60968;37.490;-122.288;2022-11-28T00:42:48;7.73;;;3.20;;
29466;SDS011;60968;37.490;-122.288;2022-11-28T00:45:49;10.30;;;2.80;;
29466;SDS011;60968;37.490;-122.288;2022-11-28T00:48:50;11.87;;;3.47;;
29466;SDS011;60968;37.490;-122.288;2022-11-28T00:51:51;10.83;;;3.70;;
29466;SDS011;60968;37.490;-122.288;2022-11-28T00:54:52;11.37;;;3.37;;
29466;SDS011;60968;37.490;-122.288;2022-11-28T00:57:53;7.13;;;3.67;;
29466;SDS011;60968;37.490;-122.288;2022-11-28T01:00:53;11.80;;;3.77;;
29466;SDS011;60968;37.490;-122.288;2022-11-28T01:03:55;12.97;;;3.87;;
29466;SDS011;60968;37.490;-122.288;2022-11-28T01:06:58;12.37;;;4.00;;
29466;SDS011;60968;37.490;-122.288;2022-11-28T01:09:58;11.90;;;4.30;;
29466;SDS011;60968;37.490;-122.288;2022-11-28T01:12:59;16.17;;;4.87;;
29466;SDS011;60968;37.490;-122.288;2022-11-28T01:16:00;13.90;;;4.67;;
29466;SDS011;60968;37.490;-122.288;2022-11-28T01:19:01;13.10;;;4.70;;
29466;SDS011;60968;37.490;-122.288;2022-11-28T01:22:02;9.23;;;4.73;;
29466;SDS011;60968;37.490;-122.288;2022-11-28T01:25:03;14.80;;;6.03;;
29466;SDS011;60968;37.490;-122.288;2022-11-28T01:28:04;14.43;;;6.60;;
29466;SDS011;60968;37.490;-122.288;2022-11-28T01:31:05;16.80;;;5.93;;
29466;SDS011;60968;37.490;-122.288;2022-11-28T01:34:08;17.63;;;6.43;;
29466;SDS011;60968;37.490;-122.288;2022-11-28T01:37:08;20.60;;;6.83;;
29466;SDS011;60968;37.490;-122.288;2022-11-28T01:40:10;17.20;;;6.47;;
29466;SDS011;60968;37.490;-122.288;2022-11-28T01:43:11;15.23;;;6.33;;
29466;SDS011;60968;37.490;-122.288;2022-11-28T01:46:12;12.70;;;6.10;;
29466;SDS011;60968;37.490;-122.288;2022-11-28T01:49:16;12.73;;;4.80;;
29466;SDS011;60968;37.490;-122.288;2022-11-28T01:52:25;16.57;;;4.40;;
29466;SDS011;60968;37.490;-122.288;2022-11-28T01:55:27;11.00;;;4.40;;
29466;SDS011;60968;37.490;-122.288;2022-11-28T01:58:32;18.43;;;6.70;;
29466;SDS011;60968;37.490;-122.288;2022-11-28T02:01:38;21.20;;;6.43;;
29466;SDS011;60968;37.490;-122.288;2022-11-28T02:04:39;20.17;;;6.53;;
29466;SDS011;60968;37.490;-122.288;2022-11-28T02:07:42;15.97;;;5.77;;
29466;SDS011;60968;37.490;-122.288;2022-11-28T02:14:32;12.40;;;4.63;;
29466;SDS011;60968;37.490;-122.288;2022-11-28T02:25:21;10.90;;;3.70;;
29466;SDS011;60968;37.490;-122.288;2022-11-28T02:41:33;8.60;;;2.23;;
29466;SDS011;60968;37.490;-122.288;2022-11-28T02:44:46;5.40;;;2.20;;
29466;SDS011;60968;37.490;-122.288;2022-11-28T02:48:06;4.80;;;1.97;;
29466;SDS011;60968;37.490;-122.288;2022-11-28T02:51:30;4.47;;;1.83;;
29466;SDS011;60968;37.490;-122.288;2022-11-28T02:54:53;3.80;;;1.83;;
29466;SDS011;60968;37.490;-122.288;2022-11-28T02:57:54;2.77;;;1.67;;
29466;SDS011;60968;37.490;-122.288;2022-11-28T03:00:55;3.50;;;1.70;;
29466;SDS011;60968;37.490;-122.288;2022-11-28T03:11:21;4.67;;;1.90;;
29466;SDS011;60968;37.490;-122.288;2022-11-28T03:14:12;5.47;;;2.60;;
29466;SDS011;60968;37.490;-122.288;2022-11-28T03:24:00;9.13;;;3.27;;
29466;SDS011;60968;37.490;-122.288;2022-11-28T03:27:13;10.33;;;4.10;;
29466;SDS011;60968;37.490;-122.288;2022-11-28T03:30:21;16.60;;;4.10;;
29466;SDS011;60968;37.490;-122.288;2022-11-28T03:33:35;10.13;;;4.03;;
29466;SDS011;60968;37.490;-122.288;2022-11-28T03:36:45;10.70;;;3.67;;
29466;SDS011;60968;37.490;-122.288;2022-11-28T03:39:53;10.93;;;4.00;;
29466;SDS011;60968;37.490;-122.288;2022-11-28T03:43:01;8.90;;;3.77;;
29466;SDS011;60968;37.490;-122.288;2022-11-28T03:46:07;10.63;;;3.57;;
29466;SDS011;60968;37.490;-122.288;2022-11-28T03:49:17;10.70;;;3.70;;
29466;SDS011;60968;37.490;-122.288;2022-11-28T03:52:24;7.53;;;3.00;;
29466;SDS011;60968;37.490;-122.288;2022-11-28T03:59:12;7.30;;;3.00;;
29466;SDS011;60968;37.490;-122.288;2022-11-28T04:02:41;6.77;;;2.37;;
29466;SDS011;60968;37.490;-122.288;2022-11-28T04:06:29;6.07;;;2.47;;
29466;SDS011;60968;37.490;-122.288;2022-11-28T04:16:40;4.27;;;1.90;;
29466;SDS011;60968;37.490;-122.288;2022-11-28T04:20:00;4.33;;;1.77;;
29466;SDS011;60968;37.490;-122.288;2022-11-28T04:23:12;5.00;;;2.00;;
29466;SDS011;60968;37.490;-122.288;2022-11-28T04:26:17;2.83;;;1.50;;
29466;SDS011;60968;37.490;-122.288;2022-11-28T04:29:23;2.93;;;1.20;;
29466;SDS011;60968;37.490;-122.288;2022-11-28T04:32:25;3.60;;;1.53;;
29466;SDS011;60968;37.490;-122.288;2022-11-28T04:36:02;2.97;;;1.60;;
29466;SDS011;60968;37.490;-122.288;2022-11-28T04:38:57;6.80;;;1.90;;
29466;SDS011;60968;37.490;-122.288;2022-11-28T04:42:09;6.27;;;1.60;;
29466;SDS011;60968;37.490;-122.288;2022-11-28T04:45:17;6.90;;;2.20;;
29466;SDS011;60968;37.490;-122.288;2022-11-28T04:48:26;5.30;;;1.90;;
29466;SDS011;60968;37.490;-122.288;2022-11-28T04:58:18;5.47;;;2.30;;
29466;SDS011;60968;37.490;-122.288;2022-11-28T05:01:40;14.40;;;2.50;;
29466;SDS011;60968;37.490;-122.288;2022-11-28T05:04:45;12.77;;;2.80;;
29466;SDS011;60968;37.490;-122.288;2022-11-28T05:07:46;6.20;;;2.43;;
29466;SDS011;60968;37.490;-122.288;2022-11-28T05:10:47;9.20;;;2.47;;
29466;SDS011;60968;37.490;-122.288;2022-11-28T05:13:48;7.10;;;2.53;;
29466;SDS011;60968;37.490;-122.288;2022-11-28T05:16:49;11.00;;;2.97;;
29466;SDS011;60968;37.490;-122.288;2022-11-28T05:19:50;10.97;;;4.00;;
29466;SDS011;60968;37.490;-122.288;2022-11-28T05:22:51;11.90;;;4.57;;
29466;SDS011;60968;37.490;-122.288;2022-11-28T05:25:52;12.60;;;4.67;;
29466;SDS011;60968;37.490;-122.288;2022-11-28T05:28:53;10.93;;;4.90;;
29466;SDS011;60968;37.490;-122.288;2022-11-28T05:31:53;15.67;;;5.23;;
29466;SDS011;60968;37.490;-122.288;2022-11-28T05:34:54;12.20;;;4.63;;
29466;SDS011;60968;37.490;-122.288;2022-11-28T05:37:55;16.50;;;4.93;;
29466;SDS011;60968;37.490;-122.288;2022-11-28T05:40:56;12.47;;;4.00;;
29466;SDS011;60968;37.490;-122.288;2022-11-28T05:43:57;10.57;;;3.53;;
29466;SDS011;60968;37.490;-122.288;2022-11-28T05:46:59;10.40;;;3.50;;
29466;SDS011;60968;37.490;-122.288;2022-11-28T05:50:00;11.67;;;3.97;;
29466;SDS011;60968;37.490;-122.288;2022-11-28T05:53:01;15.43;;;4.43;;
29466;SDS011;60968;37.490;-122.288;2022-11-28T05:56:07;12.50;;;4.60;;
29466;SDS011;60968;37.490;-122.288;2022-11-28T05:59:11;10.17;;;4.23;;
29466;SDS011;60968;37.490;-122.288;2022-11-28T06:02:12;9.90;;;3.80;;
29466;SDS011;60968;37.490;-122.288;2022-11-28T06:05:13;10.13;;;3.60;;
29466;SDS011;60968;37.490;-122.288;2022-11-28T06:08:14;4.60;;;2.83;;
29466;SDS011;60968;37.490;-122.288;2022-11-28T06:11:15;9.03;;;3.30;;
29466;SDS011;60968;37.490;-122.288;2022-11-28T06:14:18;7.33;;;3.00;;
29466;SDS011;60968;37.490;-122.288;2022-11-28T06:17:19;7.90;;;3.33;;
29466;SDS011;60968;37.490;-122.288;2022-11-28T06:20:19;5.97;;;3.00;;
29466;SDS011;60968;37.490;-122.288;2022-11-28T06:23:20;12.63;;;3.50;;
29466;SDS011;60968;37.490;-122.288;2022-11-28T06:26:21;6.87;;;3.40;;
29466;SDS011;60968;37.490;-122.288;2022-11-28T06:29:23;8.93;;;3.60;;
29466;SDS011;60968;37.490;-122.288;2022-11-28T06:32:25;11.27;;;3.90;;
29466;SDS011;60968;37.490;-122.288;2022-11-28T06:35:26;12.97;;;2.97;;
29466;SDS011;60968;37.490;-122.288;2022-11-28T06:38:27;14.10;;;3.90;;
29466;SDS011;60968;37.490;-122.288;2022-11-28T06:41:28;15.80;;;3.43;;
29466;SDS011;60968;37.490;-122.288;2022-11-28T06:44:29;15.30;;;3.60;;
29466;SDS011;60968;37.490;-122.288;2022-11-28T06:47:30;14.73;;;3.53;;
29466;SDS011;60968;37.490;-122.288;2022-11-28T06:50:31;12.13;;;3.13;;
29466;SDS011;60968;37.490;-122.288;2022-11-28T06:53:32;11.70;;;3.13;;
29466;SDS011;60968;37.490;-122.288;2022-11-28T06:56:33;13.53;;;3.47;;
29466;SDS011;60968;37.490;-122.288;2022-11-28T06:59:35;11.50;;;2.53;;
29466;SDS011;60968;37.490;-122.288;2022-11-28T07:02:35;14.90;;;2.80;;
29466;SDS011;60968;37.490;-122.288;2022-11-28T07:05:36;15.17;;;3.13;;
29466;SDS011;60968;37.490;-122.288;2022-11-28T07:08:38;14.53;;;3.00;;
29466;SDS011;60968;37.490;-122.288;2022-11-28T07:11:39;10.37;;;3.00;;
29466;SDS011;60968;37.490;-122.288;2022-11-28T07:14:40;10.27;;;2.57;;
29466;SDS011;60968;37.490;-122.288;2022-11-28T07:17:41;8.13;;;2.57;;
29466;SDS011;60968;37.490;-122.288;2022-11-28T07:20:42;10.00;;;2.27;;
29466;SDS011;60968;37.490;-122.288;2022-11-28T07:23:43;11.63;;;1.90;;
29466;SDS011;60968;37.490;-122.288;2022-11-28T07:26:45;5.27;;;1.80;;
29466;SDS011;60968;37.490;-122.288;2022-11-28T07:29:46;11.30;;;2.17;;
29466;SDS011;60968;37.490;-122.288;2022-11-28T07:32:47;6.93;;;1.97;;
29466;SDS011;60968;37.490;-122.288;2022-11-28T07:35:48;9.43;;;2.10;;
29466;SDS011;60968;37.490;-122.288;2022-11-28T07:38:49;11.90;;;2.60;;
29466;SDS011;60968;37.490;-122.288;2022-11-28T07:41:52;15.30;;;2.83;;
29466;SDS011;60968;37.490;-122.288;2022-11-28T07:44:52;15.87;;;2.70;;
29466;SDS011;60968;37.490;-122.288;2022-11-28T07:47:53;9.00;;;2.60;;
29466;SDS011;60968;37.490;-122.288;2022-11-28T07:50:54;17.67;;;3.10;;
29466;SDS011;60968;37.490;-122.288;2022-11-28T07:53:55;10.43;;;2.27;;
29466;SDS011;60968;37.490;-122.288;2022-11-28T07:56:56;10.67;;;2.73;;
29466;SDS011;60968;37.490;-122.288;2022-11-28T07:59:57;11.73;;;2.17;;
29466;SDS011;60968;37.490;-122.288;2022-11-28T08:02:58;11.10;;;2.00;;
29466;SDS011;60968;37.490;-122.288;2022-11-28T08:06:02;9.90;;;2.63;;
29466;SDS011;60968;37.490;-122.288;2022-11-28T08:09:04;20.30;;;3.03;;
29466;SDS011;60968;37.490;-122.288;2022-11-28T08:12:06;19.53;;;3.47;;
29466;SDS011;60968;37.490;-122.288;2022-11-28T08:15:07;14.07;;;2.43;;
29466;SDS011;60968;37.490;-122.288;2022-11-28T08:18:08;16.37;;;3.37;;
29466;SDS011;60968;37.490;-122.288;2022-11-28T08:21:26;17.97;;;3.23;;
29466;SDS011;60968;37.490;-122.288;2022-11-28T08:24:28;17.33;;;2.97;;
29466;SDS011;60968;37.490;-122.288;2022-11-28T08:27:30;12.80;;;2.97;;
29466;SDS011;60968;37.490;-122.288;2022-11-28T08:30:31;13.17;;;2.43;;
29466;SDS011;60968;37.490;-122.288;2022-11-28T08:33:32;20.20;;;3.27;;
29466;SDS011;60968;37.490;-122.288;2022-11-28T08:36:33;23.83;;;4.47;;
29466;SDS011;60968;37.490;-122.288;2022-11-28T08:39:34;24.00;;;4.43;;
29466;SDS011;60968;37.490;-122.288;2022-11-28T08:42:35;24.00;;;3.47;;
29466;SDS011;60968;37.490;-122.288;2022-11-28T08:45:37;19.93;;;3.80;;
29466;SDS011;60968;37.490;-122.288;2022-11-28T08:48:38;16.37;;;3.60;;
29466;SDS011;60968;37.490;-122.288;2022-11-28T08:51:40;15.00;;;3.27;;
29466;SDS011;60968;37.490;-122.288;2022-11-28T08:54:41;16.57;;;3.63;;
29466;SDS011;60968;37.490;-122.288;2022-11-28T08:57:41;18.43;;;3.73;;
29466;SDS011;60968;37.490;-122.288;2022-11-28T09:00:42;17.33;;;3.13;;
29466;SDS011;60968;37.490;-122.288;2022-11-28T09:03:43;18.23;;;3.73;;
29466;SDS011;60968;37.490;-122.288;2022-11-28T09:06:44;23.13;;;4.20;;
29466;SDS011;60968;37.490;-122.288;2022-11-28T09:09:45;17.13;;;3.80;;
29466;SDS011;60968;37.490;-122.288;2022-11-28T09:12:46;23.53;;;4.60;;
29466;SDS011;60968;37.490;-122.288;2022-11-28T09:15:47;16.77;;;3.83;;
29466;SDS011;60968;37.490;-122.288;2022-11-28T09:18:48;20.33;;;4.03;;
29466;SDS011;60968;37.490;-122.288;2022-11-28T09:21:49;25.77;;;4.67;;
29466;SDS011;60968;37.490;-122.288;2022-11-28T09:24:50;21.00;;;3.33;;
29466;SDS011;60968;37.490;-122.288;2022-11-28T09:27:51;22.17;;;4.13;;
29466;SDS011;60968;37.490;-122.288;2022-11-28T09:30:58;21.83;;;3.60;;
29466;SDS011;60968;37.490;-122.288;2022-11-28T09:34:00;14.97;;;3.00;;
29466;SDS011;60968;37.490;-122.288;2022-11-28T09:37:00;19.60;;;3.20;;
29466;SDS011;60968;37.490;-122.288;2022-11-28T09:40:01;18.87;;;3.20;;
29466;SDS011;60968;37.490;-122.288;2022-11-28T09:43:03;14.30;;;3.30;;
29466;SDS011;60968;37.490;-122.288;2022-11-28T09:46:33;20.83;;;3.83;;
29466;SDS011;60968;37.490;-122.288;2022-11-28T09:49:39;16.03;;;3.13;;
29466;SDS011;60968;37.490;-122.288;2022-11-28T09:56:30;13.97;;;3.23;;
29466;SDS011;60968;37.490;-122.288;2022-11-28T09:59:31;14.93;;;3.07;;
29466;SDS011;60968;37.490;-122.288;2022-11-28T10:02:39;17.17;;;2.83;;
29466;SDS011;60968;37.490;-122.288;2022-11-28T10:05:52;16.63;;;3.13;;
29466;SDS011;60968;37.490;-122.288;2022-11-28T10:09:25;14.53;;;3.17;;
29466;SDS011;60968;37.490;-122.288;2022-11-28T10:12:56;11.00;;;2.30;;
29466;SDS011;60968;37.490;-122.288;2022-11-28T10:16:19;14.93;;;2.33;;
29466;SDS011;60968;37.490;-122.288;2022-11-28T10:19:31;8.10;;;2.10;;
29466;SDS011;60968;37.490;-122.288;2022-11-28T10:23:21;13.43;;;2.40;;
29466;SDS011;60968;37.490;-122.288;2022-11-28T10:26:17;17.23;;;3.03;;
29466;SDS011;60968;37.490;-122.288;2022-11-28T10:32:49;17.90;;;2.60;;
29466;SDS011;60968;37.490;-122.288;2022-11-28T10:36:03;14.97;;;3.07;;
29466;SDS011;60968;37.490;-122.288;2022-11-28T10:39:07;17.70;;;3.20;;
29466;SDS011;60968;37.490;-122.288;2022-11-28T10:42:18;18.87;;;2.83;;
29466;SDS011;60968;37.490;-122.288;2022-11-28T10:45:23;17.77;;;3.20;;
29466;SDS011;60968;37.490;-122.288;2022-11-28T10:48:29;17.50;;;3.00;;
29466;SDS011;60968;37.490;-122.288;2022-11-28T10:51:37;14.60;;;3.40;;
29466;SDS011;60968;37.490;-122.288;2022-11-28T10:58:56;16.03;;;3.60;;
29466;SDS011;60968;37.490;-122.288;2022-11-28T11:02:03;19.93;;;4.57;;
29466;SDS011;60968;37.490;-122.288;2022-11-28T11:05:34;19.30;;;3.30;;
29466;SDS011;60968;37.490;-122.288;2022-11-28T11:08:36;22.57;;;3.53;;
29466;SDS011;60968;37.490;-122.288;2022-11-28T11:11:48;16.87;;;4.20;;
29466;SDS011;60968;37.490;-122.288;2022-11-28T11:14:57;27.57;;;4.00;;
29466;SDS011;60968;37.490;-122.288;2022-11-28T11:18:04;23.57;;;3.33;;
29466;SDS011;60968;37.490;-122.288;2022-11-28T11:21:19;23.30;;;4.00;;
29466;SDS011;60968;37.490;-122.288;2022-11-28T11:24:20;23.33;;;3.60;;
29466;SDS011;60968;37.490;-122.288;2022-11-28T11:27:21;21.93;;;3.03;;
29466;SDS011;60968;37.490;-122.288;2022-11-28T11:33:29;20.20;;;3.07;;
29466;SDS011;60968;37.490;-122.288;2022-11-28T11:36:35;18.40;;;3.63;;
29466;SDS011;60968;37.490;-122.288;2022-11-28T11:39:36;21.97;;;3.47;;
29466;SDS011;60968;37.490;-122.288;2022-11-28T11:42:51;12.07;;;2.50;;
29466;SDS011;60968;37.490;-122.288;2022-11-28T11:46:04;14.60;;;2.63;;
29466;SDS011;60968;37.490;-122.288;2022-11-28T11:49:09;20.33;;;3.20;;
29466;SDS011;60968;37.490;-122.288;2022-11-28T11:52:28;12.37;;;2.47;;
29466;SDS011;60968;37.490;-122.288;2022-11-28T11:55:29;14.87;;;3.10;;
29466;SDS011;60968;37.490;-122.288;2022-11-28T11:58:48;12.90;;;2.50;;
29466;SDS011;60968;37.490;-122.288;2022-11-28T12:02:04;15.00;;;3.17;;
29466;SDS011;60968;37.490;-122.288;2022-11-28T12:05:28;14.10;;;3.10;;
29466;SDS011;60968;37.490;-122.288;2022-11-28T12:08:48;13.27;;;2.40;;
29466;SDS011;60968;37.490;-122.288;2022-11-28T12:12:14;11.33;;;2.83;;
29466;SDS011;60968;37.490;-122.288;2022-11-28T12:15:24;11.00;;;2.37;;
29466;SDS011;60968;37.490;-122.288;2022-11-28T12:38:26;17.47;;;3.10;;
29466;SDS011;60968;37.490;-122.288;2022-11-28T12:48:22;11.87;;;2.03;;
29466;SDS011;60968;37.490;-122.288;2022-11-28T12:58:42;21.83;;;2.97;;
29466;SDS011;60968;37.490;-122.288;2022-11-28T13:08:48;13.43;;;2.33;;
29466;SDS011;60968;37.490;-122.288;2022-11-28T13:12:18;15.83;;;2.90;;
29466;SDS011;60968;37.490;-122.288;2022-11-28T13:22:29;14.23;;;3.73;;
29466;SDS011;60968;37.490;-122.288;2022-11-28T13:29:20;15.17;;;3.13;;
29466;SDS011;60968;37.490;-122.288;2022-11-28T13:33:13;13.23;;;2.13;;
29466;SDS011;60968;37.490;-122.288;2022-11-28T13:40:06;11.80;;;1.67;;
29466;SDS011;60968;37.490;-122.288;2022-11-28T13:43:20;12.13;;;1.87;;
29466;SDS011;60968;37.490;-122.288;2022-11-28T13:46:36;11.67;;;2.17;;
29466;SDS011;60968;37.490;-122.288;2022-11-28T13:49:37;11.40;;;1.93;;
29466;SDS011;60968;37.490;-122.288;2022-11-28T13:52:41;8.77;;;1.50;;
29466;SDS011;60968;37.490;-122.288;2022-11-28T13:55:46;18.87;;;1.87;;
29466;SDS011;60968;37.490;-122.288;2022-11-28T13:58:56;11.13;;;1.90;;
29466;SDS011;60968;37.490;-122.288;2022-11-28T14:02:02;9.53;;;1.87;;
29466;SDS011;60968;37.490;-122.288;2022-11-28T14:05:33;13.40;;;1.70;;
29466;SDS011;60968;37.490;-122.288;2022-11-28T14:08:38;16.27;;;1.97;;
29466;SDS011;60968;37.490;-122.288;2022-11-28T14:11:47;10.43;;;1.63;;
29466;SDS011;60968;37.490;-122.288;2022-11-28T14:24:43;11.67;;;1.60;;
29466;SDS011;60968;37.490;-122.288;2022-11-28T14:27:56;6.00;;;1.30;;
29466;SDS011;60968;37.490;-122.288;2022-11-28T14:31:46;10.50;;;1.80;;
29466;SDS011;60968;37.490;-122.288;2022-11-28T14:34:36;11.37;;;1.77;;
29466;SDS011;60968;37.490;-122.288;2022-11-28T14:37:48;12.17;;;2.23;;
29466;SDS011;60968;37.490;-122.288;2022-11-28T14:43:57;10.43;;;2.20;;
29466;SDS011;60968;37.490;-122.288;2022-11-28T14:47:33;9.40;;;1.97;;
29466;SDS011;60968;37.490;-122.288;2022-11-28T14:53:46;5.87;;;1.30;;
29466;SDS011;60968;37.490;-122.288;2022-11-28T14:56:49;15.83;;;1.97;;
29466;SDS011;60968;37.490;-122.288;2022-11-28T14:59:51;10.10;;;1.93;;
29466;SDS011;60968;37.490;-122.288;2022-11-28T15:06:19;10.07;;;1.67;;
29466;SDS011;60968;37.490;-122.288;2022-11-28T15:12:43;10.23;;;1.77;;
29466;SDS011;60968;37.490;-122.288;2022-11-28T15:15:51;11.97;;;1.67;;
29466;SDS011;60968;37.490;-122.288;2022-11-28T15:18:54;11.03;;;1.40;;
29466;SDS011;60968;37.490;-122.288;2022-11-28T15:22:01;7.23;;;1.27;;
29466;SDS011;60968;37.490;-122.288;2022-11-28T15:25:02;10.53;;;1.40;;
29466;SDS011;60968;37.490;-122.288;2022-11-28T15:28:17;6.50;;;1.20;;
29466;SDS011;60968;37.490;-122.288;2022-11-28T15:31:21;5.80;;;1.00;;
29466;SDS011;60968;37.490;-122.288;2022-11-28T15:34:23;5.07;;;1.07;;
29466;SDS011;60968;37.490;-122.288;2022-11-28T15:37:30;6.23;;;0.90;;
29466;SDS011;60968;37.490;-122.288;2022-11-28T15:40:34;5.23;;;0.97;;
29466;SDS011;60968;37.490;-122.288;2022-11-28T15:43:36;13.53;;;1.30;;
29466;SDS011;60968;37.490;-122.288;2022-11-28T15:46:41;7.27;;;1.40;;
29466;SDS011;60968;37.490;-122.288;2022-11-28T15:49:42;6.47;;;1.10;;
29466;SDS011;60968;37.490;-122.288;2022-11-28T15:53:25;4.43;;;1.50;;
29466;SDS011;60968;37.490;-122.288;2022-11-28T15:56:17;6.33;;;1.50;;
29466;SDS011;60968;37.490;-122.288;2022-11-28T15:59:17;5.60;;;1.17;;
29466;SDS011;60968;37.490;-122.288;2022-11-28T16:02:24;6.33;;;0.80;;
29466;SDS011;60968;37.490;-122.288;2022-11-28T16:05:35;4.80;;;1.10;;
29466;SDS011;60968;37.490;-122.288;2022-11-28T16:08:48;5.43;;;1.00;;
29466;SDS011;60968;37.490;-122.288;2022-11-28T16:11:50;6.37;;;1.30;;
29466;SDS011;60968;37.490;-122.288;2022-11-28T16:14:53;8.80;;;1.23;;
29466;SDS011;60968;37.490;-122.288;2022-11-28T16:17:55;7.67;;;1.17;;
29466;SDS011;60968;37.490;-122.288;2022-11-28T16:20:56;5.93;;;1.00;;
29466;SDS011;60968;37.490;-122.288;2022-11-28T16:23:59;4.57;;;1.30;;
29466;SDS011;60968;37.490;-122.288;2022-11-28T16:27:02;3.63;;;1.23;;
29466;SDS011;60968;37.490;-122.288;2022-11-28T16:30:40;4.97;;;1.37;;
29466;SDS011;60968;37.490;-122.288;2022-11-28T16:33:43;4.18;;;1.20;;
29466;SDS011;60968;37.490;-122.288;2022-11-28T16:36:45;5.47;;;1.17;;
29466;SDS011;60968;37.490;-122.288;2022-11-28T16:40:33;4.15;;;1.20;;
29466;SDS011;60968;37.490;-122.288;2022-11-28T16:43:23;4.53;;;1.45;;
29466;SDS011;60968;37.490;-122.288;2022-11-28T16:46:39;5.60;;;1.17;;
29466;SDS011;60968;37.490;-122.288;2022-11-28T16:53:41;3.58;;;1.25;;
29466;SDS011;60968;37.490;-122.288;2022-11-28T16:56:52;3.72;;;1.15;;
29466;SDS011;60968;37.490;-122.288;2022-11-28T17:00:07;1.67;;;0.85;;
29466;SDS011;60968;37.490;-122.288;2022-11-28T17:03:54;3.25;;;1.00;;
29466;SDS011;60968;37.490;-122.288;2022-11-28T17:06:46;2.07;;;0.60;;
29466;SDS011;60968;37.490;-122.288;2022-11-28T17:09:47;4.20;;;0.73;;
29466;SDS011;60968;37.490;-122.288;2022-11-28T17:12:49;3.77;;;0.60;;
29466;SDS011;60968;37.490;-122.288;2022-11-28T17:15:50;3.90;;;0.70;;
29466;SDS011;60968;37.490;-122.288;2022-11-28T17:18:51;4.20;;;0.80;;
29466;SDS011;60968;37.490;-122.288;2022-11-28T17:21:53;5.93;;;0.60;;
29466;SDS011;60968;37.490;-122.288;2022-11-28T17:24:58;3.50;;;0.77;;
29466;SDS011;60968;37.490;-122.288;2022-11-28T17:28:00;2.77;;;0.70;;
29466;SDS011;60968;37.490;-122.288;2022-11-28T17:31:01;2.47;;;0.50;;
29466;SDS011;60968;37.490;-122.288;2022-11-28T17:34:02;3.90;;;0.60;;
29466;SDS011;60968;37.490;-122.288;2022-11-28T17:37:03;3.70;;;0.63;;
29466;SDS011;60968;37.490;-122.288;2022-11-28T17:40:04;3.17;;;0.47;;
29466;SDS011;60968;37.490;-122.288;2022-11-28T17:43:05;4.27;;;0.70;;
29466;SDS011;60968;37.490;-122.288;2022-11-28T17:46:13;1.60;;;0.40;;
29466;SDS011;60968;37.490;-122.288;2022-11-28T17:49:14;2.07;;;0.50;;
29466;SDS011;60968;37.490;-122.288;2022-11-28T17:52:15;5.27;;;0.90;;
29466;SDS011;60968;37.490;-122.288;2022-11-28T17:55:16;4.63;;;0.60;;
29466;SDS011;60968;37.490;-122.288;2022-11-28T17:58:18;3.13;;;0.57;;
29466;SDS011;60968;37.490;-122.288;2022-11-28T18:01:22;3.07;;;0.60;;
29466;SDS011;60968;37.490;-122.288;2022-11-28T18:04:25;1.63;;;0.40;;
29466;SDS011;60968;37.490;-122.288;2022-11-28T18:07:26;2.17;;;0.60;;
29466;SDS011;60968;37.490;-122.288;2022-11-28T18:10:27;2.10;;;0.50;;
29466;SDS011;60968;37.490;-122.288;2022-11-28T18:13:28;5.07;;;0.67;;
29466;SDS011;60968;37.490;-122.288;2022-11-28T18:16:29;3.20;;;0.83;;
29466;SDS011;60968;37.490;-122.288;2022-11-28T18:19:30;3.13;;;0.90;;
29466;SDS011;60968;37.490;-122.288;2022-11-28T18:22:31;3.07;;;0.57;;
29466;SDS011;60968;37.490;-122.288;2022-11-28T18:25:32;5.67;;;0.90;;
29466;SDS011;60968;37.490;-122.288;2022-11-28T18:28:32;4.03;;;0.60;;
29466;SDS011;60968;37.490;-122.288;2022-11-28T18:31:33;3.47;;;0.70;;
29466;SDS011;60968;37.490;-122.288;2022-11-28T18:34:34;5.17;;;0.60;;
29466;SDS011;60968;37.490;-122.288;2022-11-28T18:37:36;6.80;;;1.20;;
29466;SDS011;60968;37.490;-122.288;2022-11-28T18:40:37;2.07;;;0.40;;
29466;SDS011;60968;37.490;-122.288;2022-11-28T18:43:38;7.10;;;0.73;;
29466;SDS011;60968;37.490;-122.288;2022-11-28T18:46:39;3.20;;;0.50;;
29466;SDS011;60968;37.490;-122.288;2022-11-28T18:49:40;2.97;;;0.50;;
29466;SDS011;60968;37.490;-122.288;2022-11-28T18:52:41;4.03;;;0.80;;
29466;SDS011;60968;37.490;-122.288;2022-11-28T18:55:41;3.27;;;0.77;;
29466;SDS011;60968;37.490;-122.288;2022-11-28T18:58:43;3.67;;;0.40;;
29466;SDS011;60968;37.490;-122.288;2022-11-28T19:01:45;3.00;;;0.40;;
29466;SDS011;60968;37.490;-122.288;2022-11-28T19:04:46;2.93;;;0.60;;
29466;SDS011;60968;37.490;-122.288;2022-11-28T19:07:47;7.47;;;0.70;;
29466;SDS011;60968;37.490;-122.288;2022-11-28T19:10:48;2.17;;;0.40;;
29466;SDS011;60968;37.490;-122.288;2022-11-28T19:13:49;1.97;;;0.30;;
29466;SDS011;60968;37.490;-122.288;2022-11-28T19:16:51;2.93;;;0.30;;
29466;SDS011;60968;37.490;-122.288;2022-11-28T19:19:52;2.90;;;0.30;;
29466;SDS011;60968;37.490;-122.288;2022-11-28T19:22:52;1.73;;;0.30;;
29466;SDS011;60968;37.490;-122.288;2022-11-28T19:25:53;1.57;;;0.30;;
29466;SDS011;60968;37.490;-122.288;2022-11-28T19:28:54;2.20;;;0.37;;
29466;SDS011;60968;37.490;-122.288;2022-11-28T19:31:56;3.10;;;0.50;;
29466;SDS011;60968;37.490;-122.288;2022-11-28T19:34:57;2.93;;;0.40;;
29466;SDS011;60968;37.490;-122.288;2022-11-28T19:37:57;2.77;;;0.50;;
29466;SDS011;60968;37.490;-122.288;2022-11-28T19:41:04;3.20;;;0.30;;
29466;SDS011;60968;37.490;-122.288;2022-11-28T19:44:05;3.80;;;0.53;;
29466;SDS011;60968;37.490;-122.288;2022-11-28T19:47:08;1.93;;;0.50;;
29466;SDS011;60968;37.490;-122.288;2022-11-28T19:50:09;3.70;;;0.50;;
29466;SDS011;60968;37.490;-122.288;2022-11-28T19:53:10;2.83;;;0.40;;
29466;SDS011;60968;37.490;-122.288;2022-11-28T19:56:15;1.13;;;0.23;;
29466;SDS011;60968;37.490;-122.288;2022-11-28T19:59:18;2.77;;;0.77;;
29466;SDS011;60968;37.490;-122.288;2022-11-28T20:02:19;1.23;;;0.30;;
29466;SDS011;60968;37.490;-122.288;2022-11-28T20:05:19;1.90;;;0.40;;
29466;SDS011;60968;37.490;-122.288;2022-11-28T20:08:20;3.13;;;1.07;;
29466;SDS011;60968;37.490;-122.288;2022-11-28T20:11:22;1.00;;;0.40;;